Date,TemperatureHighF,TemperatureAvgF,TemperatureLowF,DewpointHighF,DewpointAvgF,DewpointLowF,HumidityHigh,HumidityAvg,HumidityLow,PressureMaxIn,PressureMinIn,WindSpeedMaxMPH,WindSpeedAvgMPH,GustSpeedMaxMPH,PrecipitationSumIn
2013-6-1,89.1,77.7,73.9,78.5,74.3,71.7,99,90,59,29.89,29.81,8,2,13,0.81
2013-6-2,98.1,80.5,71.8,83.3,72.9,64.3,99,81,34,29.86,29.77,8,1,11,0.27
2013-6-3,91.4,79.5,72.5,80.5,73.4,68.6,99,83,52,29.89,29.76,11,1,18,0.88
2013-6-4,89.6,79.9,74.1,79.5,74.1,69.5,99,84,54,29.91,29.80,8,1,14,0.01
2013-6-5,84.9,81.0,77.9,77.7,74.9,73.2,89,82,69,29.87,29.74,7,2,11,0.06
2013-6-6,90.7,80.5,73.2,82.5,74.2,68.3,99,82,48,30.30,29.60,16,3,28,2.42
2013-6-7,92.8,78.3,73.4,77.6,73.8,71.0,99,88,51,29.84,29.69,9,2,15,1.40
2013-6-8,85.5,77.7,73.2,82.5,76.2,73.0,99,95,77,29.97,29.81,10,1,18,3.97
2013-6-9,90.3,81.7,72.5,80.1,73.6,67.2,99,78,49,29.98,29.88,14,3,22,0.51
2013-6-10,91.6,84.0,78.4,75.7,73.2,68.9,88,71,51,29.95,29.86,10,3,16,0.00
2013-6-11,94.1,83.0,74.3,79.6,74.8,68.1,93,77,48,29.95,29.85,12,2,17,0.40
2013-6-12,95.4,80.7,75.9,82.1,74.5,68.0,99,83,45,29.93,29.87,8,1,14,0.06
2013-6-13,95.4,81.7,74.1,82.9,72.9,67.2,99,77,41,29.90,29.79,7,1,11,0.01
2013-6-14,96.8,82.6,73.4,79.6,70.8,63.6,99,71,35,29.83,29.73,11,2,21,0.01
2013-6-15,100.6,84.6,73.8,80.1,70.6,60.8,99,67,29,29.91,29.77,8,2,12,0.00
2013-6-16,94.8,85.1,75.7,79.3,71.8,62.7,99,68,36,29.95,29.87,9,2,15,0.00
2013-6-17,95.2,86.0,77.2,78.1,71.3,64.0,93,64,38,29.93,29.85,10,3,16,0.00
2013-6-18,96.6,86.3,76.6,78.4,71.2,63.9,95,64,37,29.92,29.83,10,2,14,0.00
2013-6-19,95.4,84.2,77.9,76.6,71.6,65.7,89,68,41,29.91,29.83,8,2,13,0.00
2013-6-20,98.6,83.7,75.4,73.4,68.4,60.3,86,63,30,29.94,29.87,14,2,28,0.00
2013-6-21,94.3,84.9,74.7,76.5,68.3,58.2,93,61,30,29.96,29.88,9,2,14,0.00
2013-6-22,93.2,84.7,75.7,74.8,68.6,62.0,88,61,38,29.95,29.89,9,2,14,0.01
2013-6-23,91.8,83.3,75.9,77.1,70.3,65.3,96,66,44,29.98,29.90,11,3,17,0.21
2013-6-24,91.6,85.0,78.3,71.5,68.1,63.2,76,58,40,30.02,29.93,13,4,20,0.00
2013-6-25,93.0,84.6,77.5,72.1,69.5,66.3,81,62,45,29.99,29.89,11,3,16,0.00
2013-6-26,93.0,85.7,81.1,71.2,68.3,61.5,71,57,36,30.30,29.87,8,3,14,0.03
2013-6-27,95.0,82.2,75.0,78.2,72.0,66.3,93,73,41,29.92,29.81,8,1,12,0.20
2013-6-28,98.1,84.1,73.8,82.7,71.0,62.8,99,70,33,29.85,29.70,8,1,17,0.55
2013-6-29,99.7,82.2,74.7,79.4,73.2,61.7,99,78,30,29.77,29.67,11,1,17,0.13
2013-6-30,93.6,79.1,72.5,78.4,74.3,66.8,99,87,45,29.80,29.69,9,1,21,1.70